AirNav   Air Wisconsin Up To $57,000 Bonus
 
 942 users online  

01WA Willapa Harbor Heliport
South Bend, Washington, USA

GOING TO SOUTH BEND?


FAA INFORMATION EFFECTIVE 07 NOVEMBER 2019

Location

FAA Identifier: 01WA
Lat/Long: 46-39-47.3570N 123-48-43.5820W
46-39.789283N 123-48.726367W
46.6631547,-123.8121061
(estimated)
Elevation: 154 ft. / 47 m (estimated)
Variation: 20E (1985)
Time zone: UTC -8 (UTC -7 during Daylight Saving Time)
Zip code: 98586

Heliport Operations

Heliport use: Private use, MEDICAL USE.
Activation date: 03/1976
Control tower: no
ARTCC: SEATTLE CENTER
FSS: SEATTLE FLIGHT SERVICE STATION
NOTAMs facility: FDC (NOTAM-D service not available)
Attendance: UNATNDD
Wind indicator: yes
Segmented circle: no

Heliport Communications

WX ASOS at HQM (19 nm N): 135.775 (360-538-7021)

Nearby radio navigation aids

VOR radial/distance  VOR name  Freq  Var
HQMr122/22.0HOQUIAM VORTAC117.7019E
ASTr350/30.2ASTORIA VOR/DME114.0015E

Heliport Services

Runway Information

Helipad H1

Dimensions: 40 x 40 ft. / 12 x 12 m
Surface: concrete, in fair condition
Latitude: 46-39.789283N
Longitude: 123-48.726367W
Elevation: 154.0 ft.
Traffic pattern: leftleft
Markings: none, in fair condition

Heliport Ownership and Management from official FAA records

Ownership: Privately-owned
Owner: WILLAPA HARBOR HOSPITAL
800 ALDER ST
SOUTH BEND, WA 98586
Phone 360-875-5526
Manager: GARY SPOOR
800 ALDER ST
SOUTH BEND, WA 98586
Phone 360-875-4509

Additional Remarks

A52-H1 50 FT TREES 300 FT WEST.
FOR CD CTC SEATTLE ARTCC AT 253-351-3694.

Instrument Procedures

There are no published instrument procedures at 01WA.

Some nearby airports with instrument procedures:

KHQM - Bowerman Airport (19 nm N)
KAST - Astoria Regional Airport (30 nm S)
KCLS - Chehalis-Centralia Airport (34 nm E)
KOLM - Olympia Regional Airport (42 nm NE)
KTDO - Ed Carlson Memorial Field - South Lewis Co Airport (43 nm E)
 
Loc | Ops | Rwys | IFR | FBO | Links
Com | Nav | Svcs | Stats | Notes
Area around 01WA (Willapa Harbor Heliport)
 
Road maps at: MapQuest Bing Google
 
Aerial photo
No photo
 
Sectional chart

 
Airport distance calculator
Flying to Willapa Harbor Heliport? Find the distance to fly.

From to 01WA

Sunrise and sunset
Times for 11-Nov-2019
 Local
(UTC-8)
 Zulu
(UTC)
Morning civil twilight06:4114:41
Sunrise07:1315:13
Sunset16:4600:46
Evening civil twilight17:1801:18

Current date and time
Zulu (UTC)  12-Nov-2019 01:33:00
Local (UTC-8)  11-Nov-2019 17:33:00
 
METAR
KHQM 
19nm N 
120053Z AUTO 08007KT 10SM CLR 13/08 A3015 RMK AO2 SLP212 T01330078
KAST 
31nm S 
120055Z AUTO 09004KT 10SM CLR 14/07 A3012 RMK AO2 SLP200 T01390067
KCLS 
34nm E 
120115Z AUTO 00000KT 10SM CLR 09/09 A3017 RMK AO2
TAF
KHQM 
19nm N 
111720Z 1118/1218 10006KT P6SM BKN200 FM120900 06005KT P6SM OVC080 FM121200 08005KT 6SM -RA BR SCT020 OVC040 FM121400 08005KT 4SM -RA BR OVC015
NOTAMs
Click for the latest NOTAMs
NOTAMs are issued by the DoD/FAA and will open in a separate window not controlled by AirNav.

 

 
 

Would you like to see your business listed on this page?

 If your business provides an interesting product or service to pilots, flight crews, aircraft, or users of the Willapa Harbor Heliport, you should consider listing it here.  To start the listing process, click on the button below
 
Add a business
 

Other Pages about Willapa Harbor Heliport

Update a link
 
Copyright © AirNav, LLC. All rights reserved. Privacy Policy  Contact